Tarrants, Missouri
Current Conditions -  °F | °C
As of 7:35 PM on Thursday 27 Nov 2014 (Local Time) from KPPQ Reporting Station
Clear Clear  
Wind Chill: -11°   Ceiling: Unl
Heat Index: -7°   Visibility: 10mi
Dew Point: -10°   Wind: 5mph
Humidity: 82%   Direction: 70°ENE
Pressure: 30.44"   Gusts: NA
Location:  39.321°N, 91.1912°W
Report Text: KPPQ 280135Z AUTO 07004KT 10SM CLR M07/M10 A3044 RMK AO2 T10701096 PWINO
Loading
Personal Weather Stations






























Interactive Weather Map New forecast layout! Learn more

10-Day Weather Forecast

Advertisements
Track Severe Weather on mobile